Time;durP1;ratioP1;P1;durP2;ratioP2;P2;SDS_P1;SDS_P2;PMS_P1;PMS_P2;Temp;Humidity;BMP_temperature;BMP_pressure;BME280_temperature;BME280_humidity;BME280_pressure;Samples;Min_cycle;Max_cycle;Signal;HPM_P1;HPM_P2
2022/10/26 00:00:01;;;;;;;3.42;1.52;;;9.70;99.90;;;;;;4826863;29;20457;-87
2022/10/26 00:02:27;;;;;;;4.25;2.22;;;10.20;99.90;;;;;;4826047;29;20149;-88
2022/10/26 00:04:52;;;;;;;4.05;1.67;;;10.20;99.90;;;;;;4843036;29;20057;-86
2022/10/26 00:07:18;;;;;;;1.95;1.40;;;9.30;99.90;;;;;;4842626;29;20447;-86
2022/10/26 00:09:44;;;;;;;2.30;1.20;;;10.50;99.90;;;;;;4826622;29;20130;-86
2022/10/26 00:12:09;;;;;;;2.08;1.15;;;10.70;99.90;;;;;;4827179;29;20060;-87
2022/10/26 00:14:35;;;;;;;3.03;1.55;;;9.80;99.90;;;;;;4841853;29;20124;-87
2022/10/26 00:17:01;;;;;;;2.10;1.38;;;9.50;99.90;;;;;;4840215;29;20420;-87
2022/10/26 00:19:26;;;;;;;1.85;1.20;;;10.50;99.90;;;;;;4840813;29;20073;-87
2022/10/26 00:21:52;;;;;;;2.55;1.45;;;9.90;99.90;;;;;;4843063;29;20050;-88
2022/10/26 00:24:18;;;;;;;3.42;1.33;;;10.10;99.90;;;;;;4842402;29;20042;-86
2022/10/26 00:26:44;;;;;;;2.00;1.27;;;9.50;99.90;;;;;;4825739;29;20407;-87
2022/10/26 00:29:12;;;;;;;3.20;1.23;;;10.50;99.90;;;;;;4837055;29;20477;-87
2022/10/26 00:31:38;;;;;;;2.00;1.27;;;10.50;99.90;;;;;;4826103;29;20433;-88
2022/10/26 00:34:05;;;;;;;2.45;1.30;;;10.20;99.90;;;;;;4825553;29;20056;-87
2022/10/26 00:36:30;;;;;;;1.98;1.30;;;9.40;99.90;;;;;;4842377;29;20053;-87
2022/10/26 00:38:57;;;;;;;2.92;1.40;;;10.50;99.90;;;;;;4842595;29;20053;-87
2022/10/26 00:41:28;;;;;;;2.33;1.20;;;10.50;99.90;;;;;;4826755;29;20384;-86
2022/10/26 00:43:55;;;;;;;2.58;1.30;;;9.40;99.90;;;;;;4841728;29;20078;-87
2022/10/26 00:46:28;;;;;;;2.38;1.38;;;10.50;99.90;;;;;;4842641;29;20054;-87
2022/10/26 00:49:08;;;;;;;2.92;1.45;;;9.40;99.90;;;;;;4821399;29;20049;-87
2022/10/26 00:51:43;;;;;;;3.75;1.55;;;9.30;99.90;;;;;;4842327;29;20057;-87
2022/10/26 00:54:17;;;;;;;2.42;1.52;;;9.90;99.90;;;;;;4825589;29;20054;-87
2022/10/26 00:56:49;;;;;;;2.08;1.20;;;9.30;99.90;;;;;;4822445;29;20141;-87
2022/10/26 00:59:16;;;;;;;1.83;1.40;;;9.50;99.90;;;;;;4840645;29;20049;-86
2022/10/26 01:01:45;;;;;;;3.50;1.80;;;9.30;99.90;;;;;;4826276;29;20042;-87
2022/10/26 01:04:12;;;;;;;2.55;1.27;;;9.40;99.90;;;;;;4841495;29;20081;-87
2022/10/26 01:06:40;;;;;;;2.03;1.35;;;9.20;99.90;;;;;;4842215;29;20568;-87
2022/10/26 01:09:06;;;;;;;2.92;1.52;;;9.20;99.90;;;;;;4840868;29;20124;-87
2022/10/26 01:11:32;;;;;;;3.40;1.40;;;9.20;99.90;;;;;;4841543;29;20042;-86
2022/10/26 01:14:00;;;;;;;3.10;1.30;;;9.30;99.90;;;;;;4826173;29;20504;-87
2022/10/26 01:16:44;;;;;;;2.10;0.98;;;9.40;99.90;;;;;;4841658;29;20141;-87
2022/10/26 01:19:56;;;;;;;2.33;1.27;;;9.20;99.90;;;;;;4825426;29;20125;-87
2022/10/26 01:22:21;;;;;;;2.60;1.45;;;9.10;99.90;;;;;;4822543;29;20050;-87
2022/10/26 01:25:19;;;;;;;2.60;1.25;;;9.10;99.90;;;;;;4839549;29;20150;-86
2022/10/26 01:27:48;;;;;;;2.38;1.60;;;9.10;99.90;;;;;;4840848;29;20085;-87
2022/10/26 01:30:24;;;;;;;3.53;1.98;;;9.20;99.90;;;;;;4839839;29;20118;-87
2022/10/26 01:33:08;;;;;;;2.80;1.58;;;9.10;99.90;;;;;;4840415;29;20053;-87
2022/10/26 01:35:43;;;;;;;3.63;1.70;;;9.10;99.90;;;;;;4825460;29;20114;-87
2022/10/26 01:38:31;;;;;;;2.63;1.52;;;9.00;99.90;;;;;;4824461;29;20466;-87
2022/10/26 01:41:12;;;;;;;3.50;1.80;;;9.00;99.90;;;;;;4841110;29;20046;-87
2022/10/26 01:43:45;;;;;;;3.10;1.98;;;9.00;99.90;;;;;;4841642;29;20053;-88
2022/10/26 01:46:11;;;;;;;3.58;1.63;;;8.90;99.90;;;;;;4841416;29;20066;-87
2022/10/26 01:48:39;;;;;;;4.10;1.90;;;8.90;99.90;;;;;;4832923;29;20514;-86
2022/10/26 01:51:06;;;;;;;4.10;2.25;;;8.90;99.90;;;;;;4825252;29;20114;-86
2022/10/26 01:53:32;;;;;;;2.17;1.42;;;9.40;99.90;;;;;;4825384;29;20068;-87
2022/10/26 01:55:58;;;;;;;3.53;1.95;;;9.60;99.90;;;;;;4841575;29;20046;-87
2022/10/26 01:58:45;;;;;;;3.95;1.80;;;8.70;99.90;;;;;;4840057;29;20085;-87
2022/10/26 02:01:34;;;;;;;2.85;1.80;;;8.70;99.90;;;;;;4825110;29;20057;-87
2022/10/26 02:04:29;;;;;;;4.07;1.67;;;8.70;99.90;;;;;;4841550;29;20121;-87
2022/10/26 02:07:30;;;;;;;5.22;2.03;;;8.70;99.90;;;;;;4824613;29;20125;-87
2022/10/26 02:10:12;;;;;;;5.00;1.92;;;9.10;99.90;;;;;;4824748;29;20061;-88
2022/10/26 02:13:11;;;;;;;3.83;2.10;;;8.60;99.90;;;;;;4825273;29;20050;-87
2022/10/26 02:15:53;;;;;;;3.78;1.63;;;8.60;99.90;;;;;;4787865;29;20449;-87
2022/10/26 02:18:19;;;;;;;4.45;2.20;;;8.60;99.90;;;;;;4786880;29;20047;-87
2022/10/26 02:20:51;;;;;;;3.55;2.15;;;8.60;99.90;;;;;;4787941;29;20468;-88
2022/10/26 02:23:18;;;;;;;4.35;1.88;;;8.60;99.90;;;;;;4802859;29;20047;-87
2022/10/26 02:25:53;;;;;;;4.22;2.13;;;8.60;99.90;;;;;;4802850;29;20062;-88
2022/10/26 02:28:24;;;;;;;4.53;2.40;;;9.30;99.90;;;;;;4787971;29;20074;-87
2022/10/26 02:30:54;;;;;;;7.38;2.70;;;8.50;99.90;;;;;;4803034;29;20111;-87
2022/10/26 02:33:21;;;;;;;3.67;2.53;;;8.50;99.90;;;;;;4787241;29;20063;-87
2022/10/26 02:35:51;;;;;;;3.95;2.13;;;8.60;99.90;;;;;;4787804;29;20055;-88
2022/10/26 02:38:19;;;;;;;4.47;1.98;;;8.60;99.90;;;;;;4787871;29;20541;-87
2022/10/26 02:40:47;;;;;;;3.97;2.30;;;8.50;99.90;;;;;;4787728;29;20092;-87
2022/10/26 02:43:20;;;;;;;3.78;2.20;;;8.50;99.90;;;;;;4803194;29;20458;-88
2022/10/26 02:45:52;;;;;;;4.18;2.15;;;8.50;99.90;;;;;;4802938;29;20497;-88
2022/10/26 02:48:19;;;;;;;5.40;2.50;;;9.00;99.90;;;;;;4795547;29;20511;-88
2022/10/26 02:51:20;;;;;;;6.90;2.83;;;9.40;99.90;;;;;;4787575;29;20059;-87
2022/10/26 02:54:08;;;;;;;3.97;2.17;;;8.40;99.90;;;;;;4843274;29;20060;-88
2022/10/26 02:56:56;;;;;;;6.00;2.70;;;8.40;99.90;;;;;;4828092;29;20081;-88
2022/10/26 02:59:25;;;;;;;5.40;2.78;;;8.40;99.90;;;;;;4842541;29;20412;-87
2022/10/26 03:01:52;;;;;;;5.00;2.90;;;8.40;99.90;;;;;;4844392;29;20407;-88
2022/10/26 03:04:17;;;;;;;4.97;2.08;;;8.40;99.90;;;;;;4827742;29;20136;-88
2022/10/26 03:06:52;;;;;;;4.95;2.70;;;9.00;99.90;;;;;;4844424;29;20121;-87
2022/10/26 03:09:18;;;;;;;5.82;2.85;;;9.20;99.90;;;;;;4843065;29;20046;-87
2022/10/26 03:11:43;;;;;;;5.65;3.15;;;8.30;99.90;;;;;;4827965;29;20106;-88
2022/10/26 03:14:09;;;;;;;4.85;2.88;;;9.30;99.90;;;;;;4828057;29;20046;-88
2022/10/26 03:16:35;;;;;;;4.25;2.63;;;8.20;99.90;;;;;;4827360;29;20061;-88
2022/10/26 03:19:01;;;;;;;7.35;2.83;;;8.80;99.90;;;;;;4827541;29;20053;-88
2022/10/26 03:21:27;;;;;;;4.63;3.00;;;8.20;99.90;;;;;;4843526;29;20038;-88
2022/10/26 03:23:53;;;;;;;5.15;2.90;;;8.50;99.90;;;;;;4826485;29;20092;-87
2022/10/26 03:26:19;;;;;;;5.65;3.13;;;8.20;99.90;;;;;;4827156;29;20085;-88
2022/10/26 03:28:44;;;;;;;4.18;2.47;;;8.00;99.90;;;;;;4843330;29;20057;-88
2022/10/26 03:31:10;;;;;;;4.70;2.67;;;8.10;99.90;;;;;;4827435;29;20038;-88
2022/10/26 03:33:36;;;;;;;4.70;2.22;;;8.70;99.90;;;;;;4843783;29;20050;-88
2022/10/26 03:36:02;;;;;;;5.15;3.10;;;8.80;99.90;;;;;;4827313;29;20054;-88
2022/10/26 03:38:27;;;;;;;5.13;2.55;;;9.00;99.90;;;;;;4843393;29;20053;-88
2022/10/26 03:40:53;;;;;;;4.25;2.78;;;9.10;99.90;;;;;;4841609;29;20049;-88
2022/10/26 03:43:19;;;;;;;5.85;2.25;;;8.80;99.90;;;;;;4827293;29;20085;-88
2022/10/26 03:45:45;;;;;;;4.00;2.30;;;8.00;99.90;;;;;;4826810;29;20085;-88
2022/10/26 03:48:10;;;;;;;5.43;2.90;;;7.90;99.90;;;;;;4843175;29;20129;-88
2022/10/26 03:50:36;;;;;;;6.07;2.70;;;8.30;99.90;;;;;;4843497;29;20061;-87
2022/10/26 03:53:02;;;;;;;5.95;2.78;;;8.10;99.90;;;;;;4843164;29;20098;-88
2022/10/26 03:55:28;;;;;;;5.15;2.92;;;8.50;99.90;;;;;;4827294;29;20159;-89
2022/10/26 03:57:53;;;;;;;5.15;2.70;;;7.80;99.90;;;;;;4827139;29;20392;-88
2022/10/26 04:00:19;;;;;;;4.20;2.10;;;7.80;99.90;;;;;;4826542;29;20106;-88
2022/10/26 04:02:56;;;;;;;4.38;2.28;;;7.80;99.90;;;;;;4826936;29;20069;-88
2022/10/26 04:05:27;;;;;;;3.42;2.10;;;8.30;99.90;;;;;;4826112;29;20053;-88
2022/10/26 04:07:57;;;;;;;3.85;1.88;;;7.80;99.90;;;;;;4827422;29;20058;-88
2022/10/26 04:10:25;;;;;;;3.72;2.17;;;8.30;99.90;;;;;;4826292;29;20110;-88
2022/10/26 04:12:51;;;;;;;4.25;2.38;;;7.80;99.90;;;;;;4827243;29;20637;-88
2022/10/26 04:15:21;;;;;;;3.88;2.10;;;8.90;99.90;;;;;;4826686;29;20087;-88
2022/10/26 04:17:54;;;;;;;4.88;2.28;;;8.90;99.90;;;;;;4826897;29;20050;-88
2022/10/26 04:20:20;;;;;;;4.18;2.58;;;8.50;99.90;;;;;;4826420;29;20103;-88
2022/10/26 04:22:46;;;;;;;4.30;2.28;;;7.80;99.90;;;;;;4843228;29;20487;-88
2022/10/26 04:25:12;;;;;;;3.90;2.20;;;8.10;99.90;;;;;;4825997;29;20050;-88
2022/10/26 04:27:38;;;;;;;4.47;2.35;;;7.80;99.90;;;;;;4826433;29;20057;-88
2022/10/26 04:30:07;;;;;;;4.65;3.08;;;8.20;99.90;;;;;;4826574;29;20046;-89
2022/10/26 04:32:32;;;;;;;5.00;2.63;;;7.90;99.90;;;;;;4825839;29;20118;-88
2022/10/26 04:34:58;;;;;;;6.70;2.72;;;7.90;99.90;;;;;;4826371;29;20053;-88
2022/10/26 04:37:24;;;;;;;4.82;2.42;;;8.50;99.90;;;;;;4826778;29;20048;-88
2022/10/26 04:39:49;;;;;;;5.03;2.33;;;7.90;99.90;;;;;;4826286;29;20046;-88
2022/10/26 04:42:15;;;;;;;4.43;2.22;;;9.00;99.90;;;;;;4843184;29;20173;-89
2022/10/26 04:44:41;;;;;;;3.42;2.03;;;8.00;99.90;;;;;;4826205;29;20045;-88
2022/10/26 04:47:06;;;;;;;4.30;2.58;;;9.00;99.90;;;;;;4826672;29;20046;-87
2022/10/26 04:49:32;;;;;;;4.38;2.67;;;9.00;99.90;;;;;;4840458;29;20499;-88
2022/10/26 04:51:58;;;;;;;4.50;2.55;;;8.00;99.90;;;;;;4826652;29;20457;-88
2022/10/26 04:54:23;;;;;;;4.25;2.60;;;8.90;99.90;;;;;;4826623;29;20077;-88
2022/10/26 04:56:50;;;;;;;5.28;2.30;;;8.30;99.90;;;;;;4825923;29;20049;-89
2022/10/26 04:59:16;;;;;;;5.90;2.53;;;8.00;99.90;;;;;;4826542;29;20052;-89
2022/10/26 05:01:44;;;;;;;4.15;2.35;;;8.00;99.90;;;;;;4843176;29;20136;-89
2022/10/26 05:04:09;;;;;;;4.03;2.42;;;9.30;99.90;;;;;;4842221;29;20038;-89
2022/10/26 05:06:35;;;;;;;3.30;2.08;;;8.00;99.90;;;;;;4840903;29;20053;-89
2022/10/26 05:09:01;;;;;;;3.65;2.22;;;8.90;99.90;;;;;;4826263;29;20129;-88
2022/10/26 05:11:27;;;;;;;4.35;2.58;;;8.10;99.90;;;;;;4826010;29;20050;-89
2022/10/26 05:13:53;;;;;;;4.55;2.30;;;8.10;99.90;;;;;;4825712;29;20126;-88
2022/10/26 05:16:18;;;;;;;3.95;2.10;;;8.10;99.90;;;;;;4840055;29;20046;-88
2022/10/26 05:18:48;;;;;;;4.75;2.50;;;9.10;99.90;;;;;;4826173;29;20492;-88
2022/10/26 05:21:18;;;;;;;5.57;3.22;;;8.20;99.90;;;;;;4826097;29;20536;-88
2022/10/26 05:23:49;;;;;;;4.63;2.75;;;8.90;99.90;;;;;;4825926;29;20042;-90
2022/10/26 05:26:16;;;;;;;4.25;2.55;;;9.00;99.90;;;;;;4825927;29;20144;-90
2022/10/26 05:28:41;;;;;;;3.65;2.22;;;8.70;99.90;;;;;;4826235;29;20053;-88
2022/10/26 05:31:07;;;;;;;5.57;2.63;;;9.40;99.90;;;;;;4839859;29;20033;-88
2022/10/26 05:33:33;;;;;;;4.28;2.38;;;9.10;99.90;;;;;;4820357;29;20128;-89
2022/10/26 05:36:01;;;;;;;3.13;1.80;;;8.40;99.90;;;;;;4825974;29;20133;-88
2022/10/26 05:38:26;;;;;;;5.43;2.47;;;8.40;99.90;;;;;;4842420;29;20046;-88
2022/10/26 05:40:53;;;;;;;4.40;2.42;;;8.80;99.90;;;;;;4825671;29;20057;-88
2022/10/26 05:43:20;;;;;;;4.53;2.47;;;9.50;99.90;;;;;;4826136;29;20496;-88
2022/10/26 05:45:46;;;;;;;5.70;2.42;;;9.50;99.90;;;;;;4826850;29;20531;-88
2022/10/26 05:48:12;;;;;;;3.40;1.98;;;8.50;99.90;;;;;;4827853;29;20061;-87
2022/10/26 05:50:38;;;;;;;3.80;2.13;;;9.60;99.90;;;;;;4860383;29;20029;-87
2022/10/26 05:53:03;;;;;;;4.72;2.45;;;8.60;99.90;;;;;;4843956;29;20057;-87
2022/10/26 05:55:30;;;;;;;4.20;2.38;;;9.10;99.90;;;;;;4844203;29;20046;-88
2022/10/26 05:57:56;;;;;;;3.97;2.20;;;8.90;99.90;;;;;;4839930;29;20060;-89
2022/10/26 06:00:27;;;;;;;3.25;1.83;;;8.70;99.90;;;;;;4830549;29;20308;-86
2022/10/26 06:02:58;;;;;;;3.25;1.77;;;8.70;99.90;;;;;;4854733;29;20057;-88
2022/10/26 06:05:28;;;;;;;4.78;1.80;;;9.70;99.90;;;;;;4837681;29;20060;-88
2022/10/26 06:07:54;;;;;;;3.08;1.83;;;8.80;99.90;;;;;;4842604;29;20134;-87
2022/10/26 06:10:20;;;;;;;5.15;2.97;;;8.80;99.90;;;;;;4825139;29;20050;-88
2022/10/26 06:12:46;;;;;;;4.75;3.00;;;8.90;99.90;;;;;;4810423;29;20044;-87
2022/10/26 06:15:18;;;;;;;5.18;2.53;;;8.90;99.90;;;;;;4824787;29;20050;-88
2022/10/26 06:17:53;;;;;;;6.70;2.92;;;9.10;99.90;;;;;;4824192;29;20085;-89
2022/10/26 06:20:49;;;;;;;5.87;3.30;;;9.10;99.90;;;;;;4810023;29;20045;-90
2022/10/26 06:23:40;;;;;;;6.75;3.13;;;9.00;99.90;;;;;;4824814;29;20351;-90
2022/10/26 06:26:36;;;;;;;8.13;3.53;;;8.60;99.90;;;;;;4823793;29;20090;-90
2022/10/26 06:29:37;;;;;;;3.72;2.20;;;9.10;99.90;;;;;;4827378;29;20066;-88
2022/10/26 06:32:08;;;;;;;3.65;2.42;;;9.10;99.90;;;;;;4828209;29;20054;-89
2022/10/26 06:37:00;;;;;;;3.25;1.58;;;9.20;99.90;;;;;;4864658;23;20136;-90
2022/10/26 06:39:30;;;;;;;3.55;1.95;;;9.20;99.90;;;;;;4844493;29;20057;-90
2022/10/26 06:41:56;;;;;;;5.78;2.13;;;9.20;99.90;;;;;;4828735;29;20045;-89
2022/10/26 06:44:26;;;;;;;4.00;1.92;;;9.30;99.90;;;;;;4828126;29;20046;-89
2022/10/26 06:47:19;;;;;;;4.03;1.80;;;9.30;99.90;;;;;;4846261;29;20189;-87
2022/10/26 06:49:57;;;;;;;3.53;2.10;;;9.40;99.90;;;;;;4828237;29;20050;-89
2022/10/26 06:52:35;;;;;;;3.35;1.95;;;8.80;99.90;;;;;;4844392;29;20443;-88
2022/10/26 06:55:03;;;;;;;4.07;2.38;;;9.50;99.90;;;;;;4839245;29;20050;-90
2022/10/26 06:57:34;;;;;;;6.13;2.42;;;9.40;99.90;;;;;;4828085;29;20049;-89
2022/10/26 07:03:58;;;;;;;4.93;2.65;;;9.60;99.90;;;;;;4843266;29;20093;-91
2022/10/26 07:06:24;;;;;;;5.63;2.95;;;9.60;99.90;;;;;;4844602;29;20445;-88
2022/10/26 07:08:56;;;;;;;4.50;2.45;;;10.50;99.90;;;;;;4826988;29;20054;-91
2022/10/26 07:11:22;;;;;;;5.00;2.78;;;9.70;99.90;;;;;;4828652;29;20484;-90
2022/10/26 07:13:49;;;;;;;3.83;2.50;;;9.70;99.90;;;;;;4828153;29;20087;-90
2022/10/26 07:16:24;;;;;;;3.50;2.28;;;9.60;99.90;;;;;;4829061;29;20102;-91
2022/10/26 07:18:50;;;;;;;3.53;2.03;;;9.80;99.90;;;;;;4827660;29;20496;-88
2022/10/26 07:22:09;;;;;;;3.60;2.42;;;9.80;99.90;;;;;;4844397;29;20046;-92
2022/10/26 07:24:38;;;;;;;5.30;2.72;;;9.90;99.90;;;;;;4844710;29;20058;-90
2022/10/26 07:27:04;;;;;;;4.85;2.97;;;9.90;99.90;;;;;;4828404;29;20050;-89
2022/10/26 07:29:30;;;;;;;5.75;3.28;;;10.00;99.90;;;;;;4827525;29;20050;-88
2022/10/26 07:31:56;;;;;;;9.07;3.08;;;10.00;99.90;;;;;;4844731;29;20050;-88
2022/10/26 07:34:21;;;;;;;4.63;2.42;;;10.70;99.90;;;;;;4844251;29;20448;-88
2022/10/26 07:36:47;;;;;;;4.68;2.53;;;10.10;99.90;;;;;;4828066;29;20061;-88
2022/10/26 07:39:13;;;;;;;4.78;2.63;;;10.20;99.90;;;;;;4827074;29;20058;-88
2022/10/26 07:41:39;;;;;;;4.85;2.17;;;10.20;99.90;;;;;;4828672;29;20102;-88
2022/10/26 07:44:08;;;;;;;4.00;2.30;;;10.30;99.90;;;;;;4844485;29;20046;-88
2022/10/26 07:46:33;;;;;;;5.35;2.30;;;10.20;99.90;;;;;;4827647;29;20102;-87
2022/10/26 07:48:59;;;;;;;2.90;1.98;;;10.40;99.90;;;;;;4827547;29;20132;-88
2022/10/26 07:51:25;;;;;;;3.80;1.88;;;10.40;99.90;;;;;;4812558;29;20054;-87
2022/10/26 07:53:53;;;;;;;3.17;1.55;;;10.50;99.90;;;;;;4827894;29;20045;-89
2022/10/26 07:56:18;;;;;;;3.25;1.83;;;10.50;99.90;;;;;;4827761;29;20045;-88
2022/10/26 07:58:44;;;;;;;1.60;1.17;;;10.60;99.90;;;;;;4827701;29;20053;-88
2022/10/26 08:01:13;;;;;;;2.47;1.30;;;10.60;99.90;;;;;;4812812;29;20046;-88
2022/10/26 08:03:39;;;;;;;1.83;1.15;;;11.70;99.90;;;;;;4812066;29;20093;-88
2022/10/26 08:06:06;;;;;;;2.80;1.30;;;10.70;99.90;;;;;;4827489;29;20133;-88
2022/10/26 08:08:32;;;;;;;2.67;1.48;;;10.80;99.90;;;;;;4827986;29;20058;-88
2022/10/26 08:10:58;;;;;;;2.75;1.48;;;10.80;99.90;;;;;;4827819;29;20138;-88
2022/10/26 08:13:24;;;;;;;3.88;1.90;;;10.90;99.90;;;;;;4844191;29;20045;-87
2022/10/26 08:15:55;;;;;;;2.90;1.75;;;11.00;99.90;;;;;;4827625;29;20127;-88
2022/10/26 08:18:20;;;;;;;3.63;1.75;;;11.10;99.90;;;;;;4843789;29;20050;-88
2022/10/26 08:20:46;;;;;;;2.75;1.35;;;11.10;99.90;;;;;;4827306;29;20108;-89
2022/10/26 08:23:12;;;;;;;2.60;1.38;;;11.20;99.90;;;;;;4843940;29;20050;-89
2022/10/26 08:25:37;;;;;;;3.03;1.60;;;11.80;99.90;;;;;;4827634;29;20042;-88
2022/10/26 08:28:04;;;;;;;3.72;1.30;;;11.30;99.90;;;;;;4827445;29;20054;-88
2022/10/26 08:30:30;;;;;;;2.65;1.25;;;11.30;99.90;;;;;;4827389;29;20094;-88
2022/10/26 08:33:06;;;;;;;2.60;1.40;;;11.40;99.90;;;;;;4843566;29;20531;-89
2022/10/26 08:35:33;;;;;;;2.40;1.00;;;11.50;99.90;;;;;;4827046;29;20070;-89
2022/10/26 08:37:59;;;;;;;2.05;1.10;;;11.50;99.90;;;;;;4827617;29;20058;-87
2022/10/26 08:40:31;;;;;;;3.42;1.40;;;11.60;99.90;;;;;;4812256;29;20058;-88
2022/10/26 08:43:03;;;;;;;1.73;1.02;;;11.70;99.90;;;;;;4827333;29;20393;-89
2022/10/26 08:45:34;;;;;;;1.60;1.00;;;11.80;99.90;;;;;;4843300;29;20460;-88
2022/10/26 08:48:08;;;;;;;2.05;1.20;;;11.80;99.90;;;;;;4827305;29;20085;-88
2022/10/26 08:50:41;;;;;;;2.30;1.05;;;12.30;99.90;;;;;;4843118;29;20146;-87
2022/10/26 08:53:30;;;;;;;1.73;0.82;;;12.00;99.90;;;;;;4843398;29;20053;-88
2022/10/26 08:56:02;;;;;;;1.58;1.00;;;12.00;99.90;;;;;;4843123;29;20090;-88
2022/10/26 08:58:37;;;;;;;3.15;1.10;;;12.10;99.90;;;;;;4826770;29;20046;-88
2022/10/26 09:01:04;;;;;;;1.20;0.90;;;12.20;99.90;;;;;;4843421;29;20089;-88
2022/10/26 09:03:30;;;;;;;2.75;1.20;;;12.20;99.90;;;;;;4843266;29;20046;-88
2022/10/26 09:06:18;;;;;;;1.40;1.00;;;12.80;99.90;;;;;;4827266;29;20157;-88
2022/10/26 09:08:59;;;;;;;2.40;1.42;;;12.40;99.90;;;;;;4827456;29;20053;-88
2022/10/26 09:11:51;;;;;;;2.45;1.00;;;12.50;99.90;;;;;;4827323;29;20058;-87
2022/10/26 09:14:46;;;;;;;2.63;1.10;;;12.60;99.90;;;;;;4827077;29;20106;-90
2022/10/26 09:17:18;;;;;;;2.33;1.33;;;12.80;99.90;;;;;;4826846;29;20049;-90
2022/10/26 09:19:53;;;;;;;1.98;1.08;;;12.90;99.90;;;;;;4826854;29;20110;-90
2022/10/26 09:22:29;;;;;;;2.10;1.17;;;13.10;99.90;;;;;;4827205;29;20104;-90
2022/10/26 09:24:59;;;;;;;1.98;0.90;;;13.30;99.90;;;;;;4843702;29;20046;-91
2022/10/26 09:27:31;;;;;;;3.25;1.20;;;13.80;99.90;;;;;;4827000;29;20061;-90
2022/10/26 09:30:02;;;;;;;2.10;1.15;;;13.60;99.90;;;;;;4843045;29;20118;-90
2022/10/26 09:32:39;;;;;;;1.25;0.88;;;13.70;99.90;;;;;;4843037;29;20046;-90
2022/10/26 09:35:23;;;;;;;1.58;1.00;;;13.90;99.90;;;;;;4842591;29;20053;-90
2022/10/26 09:38:07;;;;;;;1.75;0.70;;;14.00;99.90;;;;;;4842732;29;20057;-91
2022/10/26 09:40:42;;;;;;;2.10;1.13;;;14.10;99.90;;;;;;4826307;29;20048;-91
2022/10/26 09:43:23;;;;;;;1.60;1.10;;;14.20;99.90;;;;;;4826269;29;20117;-90
2022/10/26 09:45:51;;;;;;;1.52;0.60;;;14.20;99.90;;;;;;4842524;29;20050;-91
2022/10/26 09:48:39;;;;;;;1.30;0.80;;;14.30;99.90;;;;;;4810814;29;20548;-90
2022/10/26 09:51:06;;;;;;;1.15;0.73;;;14.50;99.90;;;;;;4826262;29;20085;-90
2022/10/26 09:53:31;;;;;;;1.83;0.80;;;14.70;99.90;;;;;;4826916;29;20053;-91
2022/10/26 09:56:11;;;;;;;2.50;0.80;;;14.90;99.90;;;;;;4842781;29;20114;-90
2022/10/26 09:58:43;;;;;;;1.88;1.00;;;15.10;99.90;;;;;;4842754;29;20457;-91
2022/10/26 10:01:33;;;;;;;1.48;0.77;;;15.20;99.90;;;;;;4842470;29;20046;-92
2022/10/26 10:04:23;;;;;;;1.90;0.70;;;15.30;99.90;;;;;;4829000;29;20415;-90
2022/10/26 10:06:50;;;;;;;2.05;0.60;;;15.50;99.90;;;;;;4829896;29;20053;-90
2022/10/26 10:09:20;;;;;;;2.17;0.80;;;15.60;99.90;;;;;;4846217;29;20062;-90
2022/10/26 10:12:03;;;;;;;1.90;0.95;;;15.70;99.90;;;;;;4829764;29;20069;-91
2022/10/26 10:14:32;;;;;;;1.02;0.70;;;15.90;99.90;;;;;;4829907;29;20384;-91
2022/10/26 10:17:07;;;;;;;1.15;0.68;;;16.00;99.90;;;;;;4829615;29;20106;-90
2022/10/26 10:19:35;;;;;;;1.20;0.80;;;16.10;99.90;;;;;;4845846;29;20053;-90
2022/10/26 10:22:17;;;;;;;1.58;0.70;;;16.50;99.90;;;;;;4845919;29;20057;-90
2022/10/26 10:24:52;;;;;;;1.20;0.63;;;16.30;99.90;;;;;;4829270;29;20058;-88
2022/10/26 10:27:18;;;;;;;2.28;0.80;;;16.40;99.90;;;;;;4829484;29;20058;-91
2022/10/26 10:29:46;;;;;;;2.47;0.70;;;16.50;99.90;;;;;;4845892;29;20130;-91
2022/10/26 10:32:33;;;;;;;1.88;0.73;;;16.50;99.90;;;;;;4845848;29;20422;-89
2022/10/26 10:34:59;;;;;;;0.82;0.52;;;16.70;99.90;;;;;;4829605;29;20050;-89
2022/10/26 10:37:43;;;;;;;1.15;0.57;;;16.80;99.90;;;;;;4828960;29;20140;-90
2022/10/26 10:40:20;;;;;;;2.50;0.60;;;16.90;99.90;;;;;;4844906;29;20452;-88
2022/10/26 10:42:47;;;;;;;0.90;0.50;;;16.80;99.90;;;;;;4828380;29;20062;-88
2022/10/26 10:45:33;;;;;;;1.77;0.60;;;17.00;99.90;;;;;;4829646;29;20126;-91
2022/10/26 10:48:48;;;;;;;;;;;;;;;;;;;;;
2022/10/26 10:54:23;;;;;;;2.15;0.60;;;17.20;99.90;;;;;;4855408;24;20061;-94
2022/10/26 10:57:02;;;;;;;1.35;0.50;;;17.10;99.90;;;;;;4845241;29;20054;-88
2022/10/26 10:59:31;;;;;;;3.80;0.70;;;17.20;99.90;;;;;;4828581;29;20137;-88
2022/10/26 11:02:20;;;;;;;1.85;0.40;;;17.20;99.90;;;;;;4827994;29;20110;-87
2022/10/26 11:05:05;;;;;;;1.63;0.52;;;17.20;99.90;;;;;;4827967;29;20064;-88
2022/10/26 11:07:39;;;;;;;1.30;0.50;;;17.20;99.90;;;;;;4828350;29;20108;-89
2022/10/26 11:10:07;;;;;;;2.28;0.50;;;17.20;99.90;;;;;;4837888;29;20042;-88
2022/10/26 11:12:43;;;;;;;1.95;0.40;;;17.20;99.90;;;;;;4828038;29;20563;-88
2022/10/26 11:22:57;;;;;;;1.63;0.30;;;17.40;99.90;;;;;;4839662;29;20044;-90
2022/10/26 11:25:50;;;;;;;2.22;0.40;;;17.40;99.90;;;;;;4839269;29;20045;-90
2022/10/26 11:28:48;;;;;;;1.30;0.50;;;17.50;99.90;;;;;;4822700;29;20053;-92
2022/10/26 11:31:36;;;;;;;0.40;0.30;;;17.60;99.90;;;;;;4821479;29;20129;-88
2022/10/26 11:34:05;;;;;;;0.57;0.28;;;17.60;99.90;;;;;;4843044;29;21578;-91
2022/10/26 11:36:33;;;;;;;0.75;0.40;;;17.80;99.90;;;;;;4827468;29;20052;-88
2022/10/26 11:39:36;;;;;;;1.70;0.40;;;17.80;99.90;;;;;;4828589;29;20061;-91
2022/10/26 11:42:35;;;;;;;3.40;0.50;;;17.90;99.90;;;;;;4828763;29;20042;-92
2022/10/26 11:46:04;;;;;;;;;;;;;;;;;;;;;
2022/10/26 11:49:17;;;;;;;1.80;0.47;;;18.00;99.90;;;;;;4715925;30;20064;-91
2022/10/26 11:51:51;;;;;;;1.77;0.68;;;18.20;99.90;;;;;;4724437;30;20066;-88
2022/10/26 11:54:29;;;;;;;2.07;0.60;;;18.30;99.90;;;;;;4733036;30;20083;-89
2022/10/26 11:56:57;;;;;;;2.85;0.60;;;18.40;99.90;;;;;;4751265;30;20063;-89
2022/10/26 11:59:27;;;;;;;2.55;0.70;;;18.40;99.90;;;;;;4738018;30;20064;-88
2022/10/26 12:02:15;;;;;;;3.90;1.27;;;18.50;99.90;;;;;;4754153;30;20060;-89
2022/10/26 12:04:43;;;;;;;1.25;0.70;;;18.70;99.90;;;;;;4689749;30;20643;-89
2022/10/26 12:07:23;;;;;;;2.80;1.08;;;18.70;99.90;;;;;;4686362;30;20057;-92
2022/10/26 12:09:51;;;;;;;1.35;0.65;;;18.80;99.90;;;;;;4692005;30;20156;-89
2022/10/26 12:12:27;;;;;;;1.25;0.80;;;18.90;99.90;;;;;;4713347;30;20058;-88
2022/10/26 12:15:20;;;;;;;2.13;0.80;;;18.90;99.90;;;;;;4706670;30;20061;-88
2022/10/26 12:17:51;;;;;;;1.95;0.70;;;18.90;99.90;;;;;;4681811;30;20069;-89
2022/10/26 12:20:41;;;;;;;2.70;0.60;;;18.90;99.90;;;;;;4699136;30;20108;-88
2022/10/26 12:23:10;;;;;;;1.10;0.50;;;18.90;99.90;;;;;;4686304;30;20064;-89
2022/10/26 12:25:36;;;;;;;1.05;0.47;;;18.90;99.90;;;;;;4711372;30;20100;-88
2022/10/26 12:28:01;;;;;;;3.42;0.75;;;18.80;99.90;;;;;;4715709;30;20162;-88
2022/10/26 12:30:33;;;;;;;1.30;0.68;;;19.00;99.90;;;;;;4751867;30;20055;-89
2022/10/26 12:33:00;;;;;;;2.63;0.60;;;19.10;99.90;;;;;;4754232;30;20079;-88
2022/10/26 12:35:37;;;;;;;1.60;0.70;;;19.20;99.90;;;;;;4730204;30;20059;-89
2022/10/26 12:38:24;;;;;;;1.60;0.60;;;19.30;99.90;;;;;;4736685;30;20147;-89
2022/10/26 12:41:07;;;;;;;1.58;0.40;;;19.30;99.90;;;;;;4762820;29;20135;-88
2022/10/26 12:43:36;;;;;;;3.03;1.00;;;19.40;99.90;;;;;;4821430;29;20054;-88
2022/10/26 12:46:25;;;;;;;1.15;0.50;;;19.40;99.90;;;;;;4829720;29;20058;-89
2022/10/26 12:48:52;;;;;;;2.58;0.65;;;19.40;99.90;;;;;;4822627;29;20058;-88
2022/10/26 12:51:38;;;;;;;1.85;0.65;;;19.30;99.90;;;;;;4834316;29;20504;-89
2022/10/26 12:54:20;;;;;;;1.95;0.90;;;19.30;99.90;;;;;;4826878;29;20054;-88
2022/10/26 12:56:57;;;;;;;3.03;0.80;;;19.20;99.90;;;;;;4826605;29;20497;-89
2022/10/26 12:59:33;;;;;;;3.10;0.88;;;19.10;99.90;;;;;;4826543;29;20060;-89
2022/10/26 13:02:14;;;;;;;2.58;0.93;;;19.10;99.90;;;;;;4842934;29;20124;-90
2022/10/26 13:05:05;;;;;;;2.10;0.70;;;19.10;99.90;;;;;;4836581;29;20129;-89
2022/10/26 13:07:38;;;;;;;1.85;0.80;;;19.10;99.90;;;;;;4842467;29;20475;-89
2022/10/26 13:10:10;;;;;;;2.05;0.82;;;19.10;99.90;;;;;;4826239;29;20521;-89
2022/10/26 13:12:50;;;;;;;2.28;1.10;;;19.10;99.90;;;;;;4819113;29;20077;-89
2022/10/26 13:15:27;;;;;;;2.85;0.90;;;19.20;99.90;;;;;;4842905;29;20073;-89
2022/10/26 13:17:58;;;;;;;3.03;0.80;;;19.20;99.90;;;;;;4842432;29;20041;-89
2022/10/26 13:20:25;;;;;;;2.28;1.02;;;19.10;99.90;;;;;;4840814;29;20066;-89
2022/10/26 13:22:51;;;;;;;1.70;0.60;;;19.10;99.90;;;;;;4842096;29;20487;-88
2022/10/26 13:25:28;;;;;;;2.38;0.90;;;19.10;99.90;;;;;;4825864;29;20118;-88
2022/10/26 13:28:03;;;;;;;2.50;0.50;;;19.00;99.90;;;;;;4842438;29;20477;-88
2022/10/26 13:30:32;;;;;;;2.47;0.80;;;19.00;99.90;;;;;;4825578;29;20050;-88
2022/10/26 13:32:59;;;;;;;5.35;1.00;;;18.90;99.90;;;;;;4841123;29;20061;-89
2022/10/26 13:35:25;;;;;;;4.07;0.85;;;18.80;99.90;;;;;;4840871;29;20391;-89
2022/10/26 13:37:54;;;;;;;2.60;0.70;;;18.70;99.90;;;;;;4840322;29;20503;-88
2022/10/26 13:40:26;;;;;;;3.50;1.40;;;18.70;99.90;;;;;;4841062;29;20423;-87